createdAt,value
2023-04-26T00:00:45.853Z,99649.60
2023-04-26T00:01:49.585Z,99647.71
2023-04-26T00:02:53.416Z,99641.88
2023-04-26T00:03:56.580Z,99644.95
2023-04-26T00:05:02.424Z,99643.91
2023-04-26T00:06:05.666Z,99653.33
2023-04-26T00:07:08.572Z,99650.48
2023-04-26T00:08:11.546Z,99655.07
2023-04-26T00:09:14.601Z,99652.13
2023-04-26T00:10:17.616Z,99648.81
2023-04-26T00:11:20.565Z,99661.80
2023-04-26T00:12:23.383Z,99657.22
2023-04-26T00:13:26.378Z,99660.23
2023-04-26T00:14:29.265Z,99659.66
2023-04-26T00:15:32.392Z,99656.77
2023-04-26T00:16:35.425Z,99658.46
2023-04-26T00:17:38.485Z,99659.49
2023-04-26T00:18:41.510Z,99665.48
2023-04-26T00:19:45.251Z,99664.52
2023-04-26T00:20:48.091Z,99660.48
2023-04-26T00:21:51.002Z,99669.98
2023-04-26T00:22:53.850Z,99665.76
2023-04-26T00:23:56.691Z,99667.84
2023-04-26T00:24:59.937Z,99667.80
2023-04-26T00:26:02.991Z,99674.73
2023-04-26T00:27:09.269Z,99675.27
2023-04-26T00:28:12.133Z,99676.11
2023-04-26T00:29:15.027Z,99675.15
2023-04-26T00:30:18.146Z,99670.95
2023-04-26T00:31:21.103Z,99679.67
2023-04-26T00:32:24.155Z,99679.95
2023-04-26T00:33:27.124Z,99681.67
2023-04-26T00:34:34.265Z,99680.01
2023-04-26T00:35:38.211Z,99684.83
2023-04-26T00:36:41.054Z,99686.11
2023-04-26T00:37:43.950Z,99688.80
2023-04-26T00:38:47.065Z,99690.80
2023-04-26T00:39:49.967Z,99686.08
2023-04-26T00:40:52.936Z,99687.37
2023-04-26T00:41:56.278Z,99692.89
2023-04-26T00:42:59.490Z,99691.66
2023-04-26T00:44:02.384Z,99690.42
2023-04-26T00:45:06.701Z,99688.08
2023-04-26T00:46:10.315Z,99696.44
2023-04-26T00:47:14.361Z,99690.25
2023-04-26T00:48:18.156Z,99690.42
2023-04-26T00:49:24.214Z,99693.52
2023-04-26T00:50:27.609Z,99689.58
2023-04-26T00:51:31.494Z,99693.02
2023-04-26T00:52:34.510Z,99689.14
2023-04-26T00:53:37.483Z,99686.58
2023-04-26T00:54:42.614Z,99692.27
2023-04-26T00:55:48.040Z,99693.52
2023-04-26T00:56:53.252Z,99692.35
2023-04-26T00:57:56.302Z,99693.74
2023-04-26T00:58:59.441Z,99691.27
2023-04-26T01:00:02.301Z,99691.73
2023-04-26T01:01:05.402Z,99691.27
2023-04-26T01:02:08.591Z,99692.61
2023-04-26T01:03:11.938Z,99697.13
2023-04-26T01:04:15.545Z,99696.52
2023-04-26T01:05:18.583Z,99696.92
2023-04-26T01:06:22.725Z,99699.31
2023-04-26T01:07:25.958Z,99704.10
2023-04-26T01:08:29.796Z,99696.62
2023-04-26T01:09:33.902Z,99699.99
2023-04-26T01:10:36.964Z,99701.00
2023-04-26T01:11:40.214Z,99708.16
2023-04-26T01:12:43.147Z,99702.23
2023-04-26T01:13:46.642Z,99708.02
2023-04-26T01:14:49.779Z,99703.67
2023-04-26T01:15:54.852Z,99706.38
2023-04-26T01:16:58.122Z,99707.27
2023-04-26T01:18:01.985Z,99707.21
2023-04-26T01:19:11.052Z,99706.14
2023-04-26T01:20:14.910Z,99704.48
2023-04-26T01:21:22.346Z,99703.92
2023-04-26T01:22:25.269Z,99714.33
2023-04-26T01:23:28.146Z,99707.54
2023-04-26T01:24:31.792Z,99703.33
2023-04-26T01:25:35.305Z,99706.05
2023-04-26T01:26:48.242Z,99708.00
2023-04-26T01:27:51.132Z,99712.84
2023-04-26T01:28:54.252Z,99706.11
2023-04-26T01:29:57.289Z,99706.47
2023-04-26T01:31:00.242Z,99704.61
2023-04-26T01:32:03.158Z,99712.08
2023-04-26T01:33:06.681Z,99701.58
2023-04-26T01:34:09.876Z,99707.45
2023-04-26T01:35:12.808Z,99709.54
2023-04-26T01:36:15.717Z,99711.23
2023-04-26T01:37:18.574Z,99710.92
2023-04-26T01:38:21.689Z,99713.53
2023-04-26T01:39:24.549Z,99711.52
2023-04-26T01:40:27.517Z,99715.30
2023-04-26T01:41:30.709Z,99717.66
2023-04-26T01:42:36.740Z,99712.73
2023-04-26T01:43:39.569Z,99717.33
2023-04-26T01:44:42.943Z,99716.79
2023-04-26T01:45:48.863Z,99715.98
2023-04-26T01:47:07.017Z,99711.09
2023-04-26T01:48:10.245Z,99711.21
2023-04-26T01:49:13.111Z,99713.20
2023-04-26T01:50:16.374Z,99713.98
2023-04-26T01:51:19.270Z,99709.48
2023-04-26T01:52:22.973Z,99713.56
2023-04-26T01:53:26.063Z,99714.45
2023-04-26T01:54:28.931Z,99712.88
2023-04-26T01:55:31.915Z,99713.63
2023-04-26T01:56:35.052Z,99707.98
2023-04-26T01:57:37.960Z,99710.08
2023-04-26T01:58:42.298Z,99710.07
2023-04-26T01:59:45.775Z,99712.49
2023-04-26T02:00:48.768Z,99709.91
2023-04-26T02:01:51.901Z,99709.59
2023-04-26T02:02:56.101Z,99717.59
2023-04-26T02:03:59.304Z,99712.92
2023-04-26T02:05:02.736Z,99715.55
2023-04-26T02:06:05.761Z,99711.36
2023-04-26T02:07:08.671Z,99714.84
2023-04-26T02:08:21.771Z,99721.81
2023-04-26T02:09:24.664Z,99715.10
2023-04-26T02:10:27.526Z,99714.39
2023-04-26T02:11:30.821Z,99717.98
2023-04-26T02:12:34.133Z,99719.67
2023-04-26T02:13:38.030Z,99728.17
2023-04-26T02:14:40.942Z,99726.18
2023-04-26T02:15:47.086Z,99728.85
2023-04-26T02:16:51.923Z,99721.17
2023-04-26T02:17:55.755Z,99724.17
2023-04-26T02:19:03.878Z,99716.77
2023-04-26T02:20:10.412Z,99725.34
2023-04-26T02:21:13.353Z,99730.00
2023-04-26T02:22:16.434Z,99723.79
2023-04-26T02:23:19.387Z,99718.88
2023-04-26T02:24:23.260Z,99720.98
2023-04-26T02:25:27.138Z,99725.42
2023-04-26T02:26:32.686Z,99719.76
2023-04-26T02:27:37.196Z,99727.27
2023-04-26T02:28:40.395Z,99722.94
2023-04-26T02:29:44.702Z,99717.66
2023-04-26T02:30:48.527Z,99728.41
2023-04-26T02:31:51.630Z,99722.13
2023-04-26T02:32:55.539Z,99729.58
2023-04-26T02:33:58.590Z,99725.67
2023-04-26T02:35:01.604Z,99727.63
2023-04-26T02:36:08.329Z,99723.41
2023-04-26T02:37:11.982Z,99726.14
2023-04-26T02:38:15.633Z,99721.44
2023-04-26T02:39:18.547Z,99719.88
2023-04-26T02:40:21.882Z,99715.88
2023-04-26T02:41:24.992Z,99722.47
2023-04-26T02:42:28.376Z,99726.38
2023-04-26T02:43:31.282Z,99724.00
2023-04-26T02:44:34.531Z,99717.94
2023-04-26T02:45:43.804Z,99720.04
2023-04-26T02:46:48.253Z,99724.75
2023-04-26T02:47:51.465Z,99724.79
2023-04-26T02:48:54.700Z,99718.43
2023-04-26T02:49:57.768Z,99721.45
2023-04-26T02:51:01.193Z,99722.20
2023-04-26T02:52:05.151Z,99718.30
2023-04-26T02:53:08.333Z,99718.66
2023-04-26T02:54:11.189Z,99722.66
2023-04-26T02:55:14.400Z,99722.87
2023-04-26T02:56:17.364Z,99725.48
2023-04-26T02:57:20.368Z,99725.43
2023-04-26T02:58:23.388Z,99723.73
2023-04-26T02:59:26.389Z,99731.08
2023-04-26T03:00:29.357Z,99721.41
2023-04-26T03:01:32.373Z,99723.73
2023-04-26T03:02:36.541Z,99726.84
2023-04-26T03:03:39.716Z,99730.98
2023-04-26T03:04:42.694Z,99724.67
2023-04-26T03:05:46.264Z,99726.74
2023-04-26T03:06:49.443Z,99726.92
2023-04-26T03:07:52.431Z,99726.38
2023-04-26T03:08:55.568Z,99730.48
2023-04-26T03:09:58.723Z,99723.83
2023-04-26T03:11:02.107Z,99722.27
2023-04-26T03:12:06.856Z,99727.73
2023-04-26T03:13:09.987Z,99725.10
2023-04-26T03:14:13.420Z,99731.69
2023-04-26T03:15:16.535Z,99723.52
2023-04-26T03:16:21.433Z,99727.86
2023-04-26T03:17:25.103Z,99723.90
2023-04-26T03:18:28.427Z,99719.91
2023-04-26T03:19:31.753Z,99728.02
2023-04-26T03:20:35.568Z,99726.80
2023-04-26T03:21:38.617Z,99723.40
2023-04-26T03:22:42.518Z,99729.71
2023-04-26T03:23:45.494Z,99726.11
2023-04-26T03:24:49.213Z,99727.10
2023-04-26T03:25:52.712Z,99724.15
2023-04-26T03:26:55.838Z,99728.98
2023-04-26T03:27:58.934Z,99728.45
2023-04-26T03:29:02.968Z,99729.42
2023-04-26T03:30:06.736Z,99735.61
2023-04-26T03:31:09.981Z,99733.78
2023-04-26T03:32:12.910Z,99735.48
2023-04-26T03:33:16.867Z,99735.95
2023-04-26T03:34:20.259Z,99739.14
2023-04-26T03:35:23.516Z,99737.31
2023-04-26T03:36:28.614Z,99737.25
2023-04-26T03:37:31.992Z,99745.34
2023-04-26T03:38:39.018Z,99749.38
2023-04-26T03:39:42.595Z,99747.30
2023-04-26T03:40:47.104Z,99742.37
2023-04-26T03:41:50.043Z,99741.96
2023-04-26T03:42:52.940Z,99746.16
2023-04-26T03:43:55.779Z,99744.11
2023-04-26T03:44:59.777Z,99745.56
2023-04-26T03:46:02.781Z,99746.14
2023-04-26T03:47:06.227Z,99751.10
2023-04-26T03:48:09.220Z,99749.89
2023-04-26T03:49:12.332Z,99749.72
2023-04-26T03:50:15.517Z,99750.63
2023-04-26T03:51:18.402Z,99755.02
2023-04-26T03:52:21.310Z,99754.88
2023-04-26T03:53:24.348Z,99755.05
2023-04-26T03:54:27.294Z,99759.70
2023-04-26T03:55:33.307Z,99758.73
2023-04-26T03:56:37.285Z,99760.12
2023-04-26T03:57:40.227Z,99761.15
2023-04-26T03:58:43.317Z,99764.12
2023-04-26T03:59:47.030Z,99764.27
2023-04-26T04:00:49.935Z,99760.52
2023-04-26T04:01:53.048Z,99763.04
2023-04-26T04:02:56.926Z,99755.81
2023-04-26T04:04:00.690Z,99756.66
2023-04-26T04:05:05.713Z,99758.91
2023-04-26T04:06:08.629Z,99761.64
2023-04-26T04:07:11.478Z,99761.15
2023-04-26T04:08:14.384Z,99762.48
2023-04-26T04:09:17.488Z,99765.02
2023-04-26T04:10:20.385Z,99764.95
2023-04-26T04:11:23.350Z,99762.23
2023-04-26T04:12:27.048Z,99756.77
2023-04-26T04:13:30.122Z,99761.95
2023-04-26T04:14:33.671Z,99758.44
2023-04-26T04:15:36.721Z,99760.19
2023-04-26T04:16:40.251Z,99760.26
2023-04-26T04:17:43.515Z,99766.61
2023-04-26T04:18:47.031Z,99759.46
2023-04-26T04:19:50.246Z,99765.73
2023-04-26T04:20:53.119Z,99764.85
2023-04-26T04:21:56.449Z,99765.58
2023-04-26T04:23:02.262Z,99765.09
2023-04-26T04:24:05.986Z,99767.26
2023-04-26T04:25:10.645Z,99767.05
2023-04-26T04:26:14.637Z,99772.73
2023-04-26T04:27:17.611Z,99769.67
2023-04-26T04:28:22.661Z,99770.89
2023-04-26T04:29:25.671Z,99767.88
2023-04-26T04:30:29.723Z,99766.80
2023-04-26T04:31:34.013Z,99768.98
2023-04-26T04:32:38.118Z,99770.50
2023-04-26T04:33:41.611Z,99773.89
2023-04-26T04:34:46.831Z,99775.98
2023-04-26T04:35:50.854Z,99783.25
2023-04-26T04:36:54.322Z,99776.63
2023-04-26T04:37:57.247Z,99783.10
2023-04-26T04:39:00.500Z,99772.95
2023-04-26T04:40:04.100Z,99775.05
2023-04-26T04:41:10.367Z,99779.34
2023-04-26T04:42:13.541Z,99777.20
2023-04-26T04:43:16.954Z,99776.88
2023-04-26T04:44:20.709Z,99782.52
2023-04-26T04:45:23.782Z,99781.85
2023-04-26T04:46:28.882Z,99788.52
2023-04-26T04:47:31.847Z,99779.16
2023-04-26T04:48:35.687Z,99787.63
2023-04-26T04:49:38.643Z,99793.10
2023-04-26T04:50:44.961Z,99787.20
2023-04-26T04:51:48.695Z,99795.92
2023-04-26T04:52:51.964Z,99800.95
2023-04-26T04:53:55.043Z,99788.06
2023-04-26T04:54:58.051Z,99791.88
2023-04-26T04:56:00.950Z,99796.52
2023-04-26T04:57:04.074Z,99793.79
2023-04-26T04:58:07.670Z,99791.62
2023-04-26T04:59:11.414Z,99791.78
2023-04-26T05:00:15.812Z,99797.73
2023-04-26T05:01:38.817Z,99800.69
2023-04-26T05:02:48.228Z,99806.58
2023-04-26T05:03:52.166Z,99807.24
2023-04-26T05:04:56.092Z,99803.45
2023-04-26T05:06:00.412Z,99802.01
2023-04-26T05:07:03.291Z,99802.10
2023-04-26T05:08:07.962Z,99808.72
2023-04-26T05:09:11.578Z,99816.10
2023-04-26T05:10:15.015Z,99807.05
2023-04-26T05:11:17.957Z,99809.95
2023-04-26T05:12:21.100Z,99810.15
2023-04-26T05:13:24.047Z,99815.95
2023-04-26T05:14:27.339Z,99811.80
2023-04-26T05:15:30.427Z,99815.05
2023-04-26T05:16:33.430Z,99817.76
2023-04-26T05:17:38.520Z,99817.61
2023-04-26T05:18:57.216Z,99822.93
2023-04-26T05:20:00.185Z,99821.69
2023-04-26T05:21:03.024Z,99821.70
2023-04-26T05:22:06.407Z,99821.85
2023-04-26T05:23:09.430Z,99823.09
2023-04-26T05:24:12.270Z,99825.91
2023-04-26T05:25:15.183Z,99828.39
2023-04-26T05:26:19.100Z,99823.92
2023-04-26T05:27:29.042Z,99826.50
2023-04-26T05:28:49.440Z,99831.21
2023-04-26T05:30:08.544Z,99833.48
2023-04-26T05:31:34.755Z,99830.98
2023-04-26T05:32:50.414Z,99833.84
2023-04-26T05:34:08.343Z,99833.30
2023-04-26T05:35:13.464Z,99832.45
2023-04-26T05:36:16.532Z,99833.80
2023-04-26T05:37:19.768Z,99834.14
2023-04-26T05:38:22.614Z,99833.66
2023-04-26T05:39:25.958Z,99834.30
2023-04-26T05:40:28.853Z,99829.61
2023-04-26T05:41:31.790Z,99836.11
2023-04-26T05:42:34.939Z,99833.27
2023-04-26T05:43:38.478Z,99826.52
2023-04-26T05:44:42.886Z,99826.77
2023-04-26T05:45:56.735Z,99827.81
2023-04-26T05:47:00.740Z,99831.14
2023-04-26T05:48:03.756Z,99829.80
2023-04-26T05:49:07.096Z,99831.17
2023-04-26T05:50:10.556Z,99828.63
2023-04-26T05:51:13.708Z,99827.83
2023-04-26T05:52:16.550Z,99833.64
2023-04-26T05:53:20.248Z,99828.63
2023-04-26T05:54:23.537Z,99835.44
2023-04-26T05:55:26.576Z,99834.82
2023-04-26T05:56:29.702Z,99835.84
2023-04-26T05:57:34.723Z,99829.49
2023-04-26T05:58:37.910Z,99829.09
2023-04-26T05:59:41.344Z,99826.17
2023-04-26T06:00:44.293Z,99834.15
2023-04-26T06:01:47.924Z,99832.89
2023-04-26T06:02:50.948Z,99829.86
2023-04-26T06:03:58.091Z,99833.03
2023-04-26T06:05:06.741Z,99835.71
2023-04-26T06:06:09.935Z,99839.85
2023-04-26T06:07:14.569Z,99833.48
2023-04-26T06:08:17.450Z,99832.83
2023-04-26T06:09:20.447Z,99839.86
2023-04-26T06:10:23.692Z,99838.85
2023-04-26T06:11:26.974Z,99837.86
2023-04-26T06:12:30.211Z,99841.52
2023-04-26T06:13:33.322Z,99842.23
2023-04-26T06:14:36.250Z,99845.70
2023-04-26T06:15:42.464Z,99844.84
2023-04-26T06:16:45.528Z,99843.23
2023-04-26T06:17:48.449Z,99837.50
2023-04-26T06:18:52.356Z,99844.02
2023-04-26T06:19:55.388Z,99838.04
2023-04-26T06:20:58.505Z,99841.19
2023-04-26T06:22:01.419Z,99839.02
2023-04-26T06:23:04.806Z,99844.44
2023-04-26T06:24:07.820Z,99838.66
2023-04-26T06:25:13.104Z,99840.05
2023-04-26T06:26:16.065Z,99832.55
2023-04-26T06:27:18.973Z,99840.60
2023-04-26T06:28:23.614Z,99835.12
2023-04-26T06:29:26.447Z,99839.95
2023-04-26T06:30:29.431Z,99839.05
2023-04-26T06:31:32.490Z,99840.05
2023-04-26T06:32:35.862Z,99840.41
2023-04-26T06:33:38.745Z,99841.29
2023-04-26T06:34:43.928Z,99842.69
2023-04-26T06:35:46.926Z,99841.71
2023-04-26T06:36:51.138Z,99843.05
2023-04-26T06:37:54.874Z,99844.64
2023-04-26T06:38:57.762Z,99842.52
2023-04-26T06:40:02.189Z,99847.23
2023-04-26T06:41:05.132Z,99850.28
2023-04-26T06:42:08.608Z,99847.39
2023-04-26T06:43:26.535Z,99853.31
2023-04-26T06:44:38.855Z,99850.56
2023-04-26T06:45:43.524Z,99844.10
2023-04-26T06:46:47.622Z,99851.75
2023-04-26T06:47:53.049Z,99850.33
2023-04-26T06:48:59.472Z,99855.40
2023-04-26T06:50:04.545Z,99857.79
2023-04-26T06:51:12.200Z,99856.27
2023-04-26T06:52:15.342Z,99847.17
2023-04-26T06:53:18.447Z,99853.30
2023-04-26T06:54:21.586Z,99850.10
2023-04-26T06:55:24.971Z,99852.40
2023-04-26T06:56:27.853Z,99853.75
2023-04-26T06:57:30.845Z,99854.09
2023-04-26T06:58:33.691Z,99855.61
2023-04-26T06:59:36.759Z,99859.44
2023-04-26T07:00:39.635Z,99861.33
2023-04-26T07:01:42.743Z,99859.09
2023-04-26T07:02:46.254Z,99865.48
2023-04-26T07:03:49.416Z,99856.14
2023-04-26T07:04:52.997Z,99852.52
2023-04-26T07:05:56.856Z,99853.93
2023-04-26T07:06:59.673Z,99850.67
2023-04-26T07:08:02.530Z,99857.80
2023-04-26T07:09:05.444Z,99854.66
2023-04-26T07:10:09.605Z,99854.02
2023-04-26T07:11:13.492Z,99855.81
2023-04-26T07:12:16.777Z,99862.27
2023-04-26T07:13:19.684Z,99856.76
2023-04-26T07:14:23.468Z,99855.95
2023-04-26T07:15:26.436Z,99851.77
2023-04-26T07:16:29.354Z,99859.18
2023-04-26T07:17:32.916Z,99861.90
2023-04-26T07:18:35.836Z,99872.00
2023-04-26T07:19:38.860Z,99861.52
2023-04-26T07:20:41.786Z,99870.30
2023-04-26T07:21:44.801Z,99867.42
2023-04-26T07:22:47.918Z,99873.46
2023-04-26T07:23:57.010Z,99871.67
2023-04-26T07:24:59.901Z,99869.61
2023-04-26T07:26:04.496Z,99869.73
2023-04-26T07:27:07.472Z,99868.19
2023-04-26T07:28:10.404Z,99869.81
2023-04-26T07:29:13.518Z,99867.86
2023-04-26T07:30:16.383Z,99874.27
2023-04-26T07:31:19.969Z,99870.96
2023-04-26T07:32:23.269Z,99871.71
2023-04-26T07:33:26.614Z,99878.32
2023-04-26T07:34:29.622Z,99867.23
2023-04-26T07:35:34.831Z,99870.78
2023-04-26T07:36:37.838Z,99877.15
2023-04-26T07:37:41.157Z,99879.27
2023-04-26T07:38:44.099Z,99876.14
2023-04-26T07:39:46.968Z,99876.05
2023-04-26T07:40:50.600Z,99879.52
2023-04-26T07:41:53.425Z,99881.35
2023-04-26T07:42:56.236Z,99876.17
2023-04-26T07:43:59.264Z,99875.31
2023-04-26T07:45:02.135Z,99879.75
2023-04-26T07:46:05.134Z,99878.70
2023-04-26T07:47:13.772Z,99878.48
2023-04-26T07:48:16.968Z,99873.92
2023-04-26T07:49:19.861Z,99879.63
2023-04-26T07:50:22.769Z,99881.23
2023-04-26T07:51:26.577Z,99878.34
2023-04-26T07:52:29.494Z,99879.81
2023-04-26T07:53:32.466Z,99882.52
2023-04-26T07:54:35.641Z,99884.38
2023-04-26T07:55:38.573Z,99887.77
2023-04-26T07:56:41.412Z,99887.23
2023-04-26T07:57:44.306Z,99884.03
2023-04-26T07:58:47.269Z,99885.54
2023-04-26T07:59:50.194Z,99888.10
2023-04-26T08:00:53.080Z,99883.94
2023-04-26T08:01:55.989Z,99886.90
2023-04-26T08:02:59.015Z,99888.57
2023-04-26T08:04:02.629Z,99887.12
2023-04-26T08:05:06.379Z,99889.92
2023-04-26T08:06:09.392Z,99889.61
2023-04-26T08:07:12.445Z,99892.10
2023-04-26T08:08:17.161Z,99888.86
2023-04-26T08:09:21.447Z,99897.79
2023-04-26T08:10:24.398Z,99892.45
2023-04-26T08:11:27.555Z,99893.38
2023-04-26T08:12:30.537Z,99896.46
2023-04-26T08:13:33.376Z,99897.61
2023-04-26T08:14:36.905Z,99901.20
2023-04-26T08:15:39.771Z,99896.17
2023-04-26T08:16:43.900Z,99897.87
2023-04-26T08:17:48.354Z,99897.09
2023-04-26T08:18:51.342Z,99898.34
2023-04-26T08:19:54.394Z,99906.05
2023-04-26T08:20:57.470Z,99907.25
2023-04-26T08:22:00.484Z,99906.09
2023-04-26T08:23:03.408Z,99908.06
2023-04-26T08:24:07.385Z,99906.45
2023-04-26T08:25:10.971Z,99907.90
2023-04-26T08:26:13.980Z,99910.90
2023-04-26T08:27:17.826Z,99901.48
2023-04-26T08:28:21.606Z,99907.17
2023-04-26T08:29:26.886Z,99899.52
2023-04-26T08:30:29.957Z,99904.11
2023-04-26T08:31:32.933Z,99898.77
2023-04-26T08:32:35.972Z,99897.64
2023-04-26T08:33:38.843Z,99897.19
2023-04-26T08:34:41.683Z,99894.22
2023-04-26T08:35:44.596Z,99900.77
2023-04-26T08:36:47.547Z,99900.05
2023-04-26T08:37:50.797Z,99901.48
2023-04-26T08:38:54.017Z,99898.41
2023-04-26T08:39:57.255Z,99895.33
2023-04-26T08:41:03.545Z,99898.17
2023-04-26T08:42:14.216Z,99907.98
2023-04-26T08:43:19.694Z,99900.60
2023-04-26T08:44:24.572Z,99905.78
2023-04-26T08:45:27.505Z,99903.23
2023-04-26T08:46:36.783Z,99902.79
2023-04-26T08:47:49.036Z,99900.08
2023-04-26T08:49:06.364Z,99903.73
2023-04-26T08:50:15.085Z,99901.59
2023-04-26T08:51:19.036Z,99900.67
2023-04-26T08:52:23.541Z,99897.80
2023-04-26T08:53:27.206Z,99895.43
2023-04-26T08:54:31.448Z,99897.64
2023-04-26T08:55:36.828Z,99900.81
2023-04-26T08:56:43.303Z,99899.13
2023-04-26T08:57:47.787Z,99902.46
2023-04-26T08:58:52.120Z,99902.61
2023-04-26T08:59:58.437Z,99900.55
2023-04-26T09:01:03.548Z,99910.05
2023-04-26T09:02:07.525Z,99914.48
2023-04-26T09:03:11.034Z,99915.60
2023-04-26T09:04:14.594Z,99919.79
2023-04-26T09:05:17.814Z,99917.84
2023-04-26T09:06:21.773Z,99925.59
2023-04-26T09:07:35.784Z,99920.41
2023-04-26T09:08:41.852Z,99919.85
2023-04-26T09:09:49.596Z,99931.67
2023-04-26T09:10:52.453Z,99928.55
2023-04-26T09:11:59.962Z,99929.91
2023-04-26T09:13:02.831Z,99927.29
2023-04-26T09:14:06.515Z,99930.06
2023-04-26T09:15:10.609Z,99925.74
2023-04-26T09:16:13.565Z,99932.10
2023-04-26T09:17:26.415Z,99938.32
2023-04-26T09:18:31.444Z,99939.65
2023-04-26T09:19:38.708Z,99946.03
2023-04-26T09:20:41.624Z,99944.80
2023-04-26T09:21:46.548Z,99934.62
2023-04-26T09:22:52.150Z,99931.81
2023-04-26T09:24:01.802Z,99941.55
2023-04-26T09:25:07.274Z,99941.15
2023-04-26T09:26:21.181Z,99941.63
2023-04-26T09:27:43.450Z,99934.75
2023-04-26T09:28:47.603Z,99934.31
2023-04-26T09:30:09.360Z,99935.89
2023-04-26T09:31:13.433Z,99941.71
2023-04-26T09:32:16.312Z,99941.64
2023-04-26T09:33:19.660Z,99939.89
2023-04-26T09:34:22.617Z,99936.91
2023-04-26T09:35:35.981Z,99941.73
2023-04-26T09:36:52.725Z,99935.55
2023-04-26T09:38:13.558Z,99935.41
2023-04-26T09:39:35.500Z,99933.26
2023-04-26T09:40:49.109Z,99938.14
2023-04-26T09:41:52.454Z,99938.59
2023-04-26T09:42:58.992Z,99939.04
2023-04-26T09:44:02.023Z,99945.21
2023-04-26T09:45:08.789Z,99937.45
2023-04-26T09:46:11.702Z,99933.78
2023-04-26T09:47:14.632Z,99945.67
2023-04-26T09:48:23.181Z,99948.98
2023-04-26T09:49:27.614Z,99943.86
2023-04-26T09:50:31.699Z,99942.81
2023-04-26T09:51:34.552Z,99947.80
2023-04-26T09:52:44.515Z,99943.80
2023-04-26T09:53:50.087Z,99941.50
2023-04-26T09:54:54.327Z,99952.09
2023-04-26T09:56:05.918Z,99944.80
2023-04-26T09:57:09.333Z,99943.39
2023-04-26T09:58:12.534Z,99941.71
2023-04-26T09:59:15.761Z,99948.77
2023-04-26T10:00:19.945Z,99946.77
2023-04-26T10:01:23.275Z,99954.66
2023-04-26T10:02:27.780Z,99948.70
2023-04-26T10:03:32.519Z,99945.80
2023-04-26T10:04:35.900Z,99956.91
2023-04-26T10:05:39.198Z,99949.45
2023-04-26T10:06:42.029Z,99948.39
2023-04-26T10:07:45.802Z,99951.27
2023-04-26T10:08:48.667Z,99948.95
2023-04-26T10:09:52.032Z,99953.23
2023-04-26T10:10:55.702Z,99946.27
2023-04-26T10:12:00.146Z,99944.58
2023-04-26T10:13:06.047Z,99943.15
2023-04-26T10:14:09.054Z,99952.10
2023-04-26T10:15:12.249Z,99950.45
2023-04-26T10:16:17.166Z,99940.56
2023-04-26T10:17:21.073Z,99936.56
2023-04-26T10:18:24.595Z,99942.93
2023-04-26T10:19:27.641Z,99940.02
2023-04-26T10:20:31.052Z,99936.98
2023-04-26T10:21:38.112Z,99943.00
2023-04-26T10:22:46.287Z,99946.92
2023-04-26T10:23:49.856Z,99946.23
2023-04-26T10:24:55.061Z,99939.77
2023-04-26T10:25:57.934Z,99934.56
2023-04-26T10:27:03.138Z,99937.09
2023-04-26T10:28:06.090Z,99943.85
2023-04-26T10:29:09.182Z,99937.09
2023-04-26T10:30:14.045Z,99940.48
2023-04-26T10:31:16.976Z,99939.54
2023-04-26T10:32:23.455Z,99935.28
2023-04-26T10:33:27.307Z,99943.04
2023-04-26T10:34:31.990Z,99942.47
2023-04-26T10:35:38.226Z,99947.66
2023-04-26T10:37:17.495Z,99950.30
2023-04-26T10:38:20.791Z,99957.83
2023-04-26T10:39:25.055Z,99952.65
2023-04-26T10:40:31.033Z,99950.45
2023-04-26T10:41:36.127Z,99952.55
2023-04-26T10:42:41.424Z,99954.80
2023-04-26T10:43:44.507Z,99959.67
2023-04-26T10:44:48.913Z,99959.08
2023-04-26T10:45:52.022Z,99960.86
2023-04-26T10:46:54.943Z,99960.91
2023-04-26T10:48:23.299Z,99961.27
2023-04-26T10:49:26.772Z,99963.58
2023-04-26T10:50:29.711Z,99971.55
2023-04-26T10:51:32.751Z,99967.05
2023-04-26T10:52:37.418Z,99968.31
2023-04-26T10:53:52.296Z,99963.56
2023-04-26T10:54:59.263Z,99960.85
2023-04-26T10:56:02.161Z,99970.96
2023-04-26T10:57:05.132Z,99961.58
2023-04-26T10:58:33.731Z,99963.80
2023-04-26T10:59:51.229Z,99963.91
2023-04-26T11:01:17.707Z,99967.39
2023-04-26T11:02:53.411Z,99971.50
2023-04-26T11:03:59.796Z,99970.83
2023-04-26T11:05:04.412Z,99980.87
2023-04-26T11:06:09.909Z,99981.56
2023-04-26T11:07:14.096Z,99983.02
2023-04-26T11:08:21.439Z,99985.52
2023-04-26T11:09:40.908Z,99981.70
2023-04-26T11:10:51.113Z,99978.38
2023-04-26T11:11:53.953Z,99979.48
2023-04-26T11:13:03.289Z,99984.95
2023-04-26T11:14:06.699Z,99988.96
2023-04-26T11:15:12.727Z,99991.13
2023-04-26T11:16:17.060Z,99993.65
2023-04-26T11:17:20.885Z,99984.48
2023-04-26T11:18:24.319Z,99991.24
2023-04-26T11:19:27.251Z,99989.95
2023-04-26T11:20:31.825Z,99985.52
2023-04-26T11:21:36.516Z,99987.15
2023-04-26T11:22:42.482Z,99987.48
2023-04-26T11:23:54.204Z,99988.45
2023-04-26T11:24:57.228Z,99989.44
2023-04-26T11:26:04.468Z,99990.44
2023-04-26T11:27:11.993Z,100002.30
2023-04-26T11:28:15.247Z,99992.75
2023-04-26T11:29:21.617Z,100000.13
2023-04-26T11:30:24.543Z,99992.73
2023-04-26T11:31:34.548Z,99992.27
2023-04-26T11:32:37.830Z,99993.51
2023-04-26T11:33:42.006Z,99996.61
2023-04-26T11:34:44.848Z,99997.86
2023-04-26T11:35:48.078Z,99995.97
2023-04-26T11:36:51.306Z,100005.33
2023-04-26T11:37:54.283Z,99999.14
2023-04-26T11:38:57.757Z,100000.52
2023-04-26T11:40:00.578Z,100003.61
2023-04-26T11:41:04.187Z,100002.11
2023-04-26T11:42:08.661Z,100014.52
2023-04-26T11:43:11.917Z,100016.23
2023-04-26T11:44:19.722Z,100007.59
2023-04-26T11:45:22.689Z,100007.85
2023-04-26T11:46:25.710Z,100014.95
2023-04-26T11:47:30.946Z,100013.44
2023-04-26T11:48:36.129Z,100010.71
2023-04-26T11:49:39.337Z,100015.23
2023-04-26T11:50:42.766Z,100007.88
2023-04-26T11:51:48.668Z,100013.14
2023-04-26T11:52:51.692Z,100021.10
2023-04-26T11:53:54.608Z,100010.91
2023-04-26T11:55:07.489Z,100016.48
2023-04-26T11:56:20.452Z,100010.02
2023-04-26T11:57:23.308Z,100011.41
2023-04-26T11:58:26.271Z,100009.91
2023-04-26T11:59:30.862Z,100013.80
2023-04-26T12:00:33.929Z,100015.75
2023-04-26T12:01:36.845Z,100023.65
2023-04-26T12:02:43.971Z,100025.86
2023-04-26T12:03:50.967Z,100025.16
2023-04-26T12:04:59.172Z,100025.91
2023-04-26T12:06:02.228Z,100030.57
2023-04-26T12:07:05.660Z,100020.23
2023-04-26T12:08:10.434Z,100017.40
2023-04-26T12:09:13.816Z,100018.36
2023-04-26T12:10:18.124Z,100021.86
2023-04-26T12:11:21.237Z,100015.69
2023-04-26T12:12:24.460Z,100019.35
2023-04-26T12:13:29.041Z,100019.16
2023-04-26T12:14:33.740Z,100021.36
2023-04-26T12:15:36.623Z,100015.84
2023-04-26T12:16:42.553Z,100016.94
2023-04-26T12:18:21.745Z,100021.58
2023-04-26T12:19:24.730Z,100017.33
2023-04-26T12:20:32.919Z,100027.34
2023-04-26T12:21:43.243Z,100026.04
2023-04-26T12:23:07.690Z,100033.31
2023-04-26T12:24:40.505Z,100027.19
2023-04-26T12:25:55.060Z,100029.94
2023-04-26T12:26:59.135Z,100033.03
2023-04-26T12:28:12.739Z,100030.27
2023-04-26T12:29:15.840Z,100025.15
2023-04-26T12:30:18.770Z,100027.08
2023-04-26T12:31:21.801Z,100028.80
2023-04-26T12:32:25.701Z,100029.35
2023-04-26T12:33:28.586Z,100033.67
2023-04-26T12:34:31.483Z,100029.90
2023-04-26T12:35:35.278Z,100032.30
2023-04-26T12:36:41.220Z,100026.02
2023-04-26T12:37:44.473Z,100030.41
2023-04-26T12:38:47.303Z,100024.34